createdAt,value
2023-07-09T00:00:11.834Z,38.46
2023-07-09T00:01:11.862Z,38.46
2023-07-09T00:02:11.898Z,38.50
2023-07-09T00:03:11.896Z,38.51
2023-07-09T00:04:11.971Z,38.47
2023-07-09T00:05:11.962Z,38.48
2023-07-09T00:06:12.002Z,38.51
2023-07-09T00:07:12.019Z,38.54
2023-07-09T00:08:12.113Z,38.51
2023-07-09T00:09:12.098Z,38.54
2023-07-09T00:10:12.088Z,38.54
2023-07-09T00:11:12.096Z,38.52
2023-07-09T00:12:12.106Z,38.55
2023-07-09T00:13:12.127Z,38.57
2023-07-09T00:14:12.380Z,38.55
2023-07-09T00:15:12.128Z,38.58
2023-07-09T00:16:12.219Z,38.62
2023-07-09T00:17:12.222Z,38.56
2023-07-09T00:18:12.219Z,38.56
2023-07-09T00:19:12.182Z,38.62
2023-07-09T00:20:12.236Z,38.59
2023-07-09T00:21:12.239Z,38.65
2023-07-09T00:22:12.236Z,38.65
2023-07-09T00:23:12.272Z,38.68
2023-07-09T00:24:12.289Z,38.65
2023-07-09T00:25:12.271Z,38.67
2023-07-09T00:26:12.340Z,38.71
2023-07-09T00:27:12.306Z,38.70
2023-07-09T00:28:12.308Z,38.74
2023-07-09T00:29:12.314Z,38.76
2023-07-09T00:30:12.328Z,38.77
2023-07-09T00:31:12.377Z,38.81
2023-07-09T00:32:12.390Z,38.82
2023-07-09T00:33:12.397Z,38.89
2023-07-09T00:34:12.330Z,38.86
2023-07-09T00:35:12.361Z,38.87
2023-07-09T00:36:12.343Z,38.90
2023-07-09T00:37:12.355Z,38.93
2023-07-09T00:38:12.412Z,38.94
2023-07-09T00:39:12.367Z,38.97
2023-07-09T00:40:12.355Z,38.98
2023-07-09T00:41:12.395Z,39.01
2023-07-09T00:42:12.401Z,39.01
2023-07-09T00:43:12.409Z,38.98
2023-07-09T00:44:12.397Z,39.02
2023-07-09T00:45:12.420Z,39.02
2023-07-09T00:46:12.418Z,39.02
2023-07-09T00:47:12.402Z,39.02
2023-07-09T00:48:12.414Z,39.09
2023-07-09T00:49:12.401Z,39.09
2023-07-09T00:50:12.414Z,39.10
2023-07-09T00:51:12.505Z,39.11
2023-07-09T00:52:12.477Z,39.14
2023-07-09T00:53:12.478Z,39.15
2023-07-09T00:54:12.478Z,39.18
2023-07-09T00:55:12.494Z,39.17
2023-07-09T00:56:12.465Z,39.21
2023-07-09T00:57:12.481Z,39.17
2023-07-09T00:58:12.513Z,39.23
2023-07-09T00:59:12.569Z,39.21
2023-07-09T01:00:12.586Z,39.25
2023-07-09T01:01:12.730Z,39.25
2023-07-09T01:02:12.586Z,39.21
2023-07-09T01:03:12.593Z,39.19
2023-07-09T01:04:12.668Z,39.20
2023-07-09T01:05:12.707Z,39.31
2023-07-09T01:06:12.662Z,39.26
2023-07-09T01:07:12.678Z,39.33
2023-07-09T01:08:12.675Z,39.28
2023-07-09T01:09:12.735Z,39.33
2023-07-09T01:10:12.758Z,39.32
2023-07-09T01:11:12.747Z,39.35
2023-07-09T01:12:12.754Z,39.33
2023-07-09T01:13:12.796Z,39.37
2023-07-09T01:14:12.848Z,39.39
2023-07-09T01:15:12.920Z,39.40
2023-07-09T01:16:13.058Z,39.43
2023-07-09T01:17:13.026Z,39.38
2023-07-09T01:18:13.041Z,39.41
2023-07-09T01:19:13.062Z,39.38
2023-07-09T01:20:13.052Z,39.43
2023-07-09T01:21:13.052Z,39.42
2023-07-09T01:22:13.153Z,39.41
2023-07-09T01:23:13.158Z,39.37
2023-07-09T01:24:13.173Z,39.44
2023-07-09T01:25:13.167Z,39.36
2023-07-09T01:26:13.166Z,39.41
2023-07-09T01:27:13.198Z,39.41
2023-07-09T01:28:13.201Z,39.45
2023-07-09T01:29:13.235Z,39.45
2023-07-09T01:30:13.209Z,39.47
2023-07-09T01:31:13.263Z,39.53
2023-07-09T01:32:13.273Z,39.49
2023-07-09T01:33:13.352Z,39.63
2023-07-09T01:34:13.279Z,39.64
2023-07-09T01:35:13.303Z,39.59
2023-07-09T01:36:13.344Z,39.70
2023-07-09T01:37:13.327Z,39.69
2023-07-09T01:38:13.381Z,39.70
2023-07-09T01:39:13.381Z,39.74
2023-07-09T01:40:28.204Z,39.75
2023-07-09T01:41:14.359Z,39.75
2023-07-09T01:42:13.362Z,39.74
2023-07-09T01:43:13.344Z,39.77
2023-07-09T01:44:13.348Z,39.83
2023-07-09T01:45:13.367Z,39.79
2023-07-09T01:46:13.330Z,39.81
2023-07-09T01:47:13.346Z,39.79
2023-07-09T01:48:13.335Z,39.84
2023-07-09T01:49:13.324Z,39.84
2023-07-09T01:50:13.313Z,39.88
2023-07-09T01:51:13.302Z,39.79
2023-07-09T01:52:13.292Z,39.79
2023-07-09T01:53:13.349Z,39.81
2023-07-09T01:54:13.275Z,39.78
2023-07-09T01:55:13.264Z,39.80
2023-07-09T01:56:13.238Z,39.77
2023-07-09T01:57:13.234Z,39.78
2023-07-09T01:58:13.257Z,39.74
2023-07-09T01:59:13.283Z,39.73
2023-07-09T02:00:13.269Z,39.71
2023-07-09T02:01:13.230Z,39.70
2023-07-09T02:02:13.205Z,39.69
2023-07-09T02:03:13.202Z,39.69
2023-07-09T02:04:13.363Z,39.66
2023-07-09T02:05:13.303Z,39.65
2023-07-09T02:06:13.323Z,39.63
2023-07-09T02:07:13.330Z,39.63
2023-07-09T02:08:13.370Z,39.63
2023-07-09T02:09:13.367Z,39.65
2023-07-09T02:10:13.407Z,39.62
2023-07-09T02:11:13.378Z,39.62
2023-07-09T02:12:13.414Z,39.62
2023-07-09T02:13:13.437Z,39.69
2023-07-09T02:14:13.509Z,39.64
2023-07-09T02:15:13.466Z,39.66
2023-07-09T02:16:13.504Z,39.64
2023-07-09T02:17:13.665Z,39.60
2023-07-09T02:18:13.537Z,39.69
2023-07-09T02:19:13.545Z,39.62
2023-07-09T02:20:13.586Z,39.64
2023-07-09T02:21:13.569Z,39.70
2023-07-09T02:22:13.601Z,39.60
2023-07-09T02:23:13.700Z,39.64
2023-07-09T02:24:13.646Z,39.64
2023-07-09T02:25:13.642Z,39.61
2023-07-09T02:26:13.660Z,39.62
2023-07-09T02:27:13.655Z,39.59
2023-07-09T02:28:13.674Z,39.62
2023-07-09T02:29:13.671Z,39.59
2023-07-09T02:30:13.709Z,39.61
2023-07-09T02:31:13.784Z,39.57
2023-07-09T02:32:13.742Z,39.52
2023-07-09T02:33:13.770Z,39.61
2023-07-09T02:34:13.779Z,39.56
2023-07-09T02:35:13.801Z,39.53
2023-07-09T02:36:13.812Z,39.53
2023-07-09T02:37:13.842Z,39.47
2023-07-09T02:38:13.862Z,39.45
2023-07-09T02:39:13.816Z,39.41
2023-07-09T02:40:13.858Z,39.37
2023-07-09T02:41:13.912Z,39.45
2023-07-09T02:42:13.879Z,39.38
2023-07-09T02:43:13.890Z,39.38
2023-07-09T02:44:13.924Z,39.38
2023-07-09T02:45:13.887Z,39.41
2023-07-09T02:46:13.906Z,39.38
2023-07-09T02:47:13.956Z,39.34
2023-07-09T02:48:13.961Z,39.33
2023-07-09T02:49:13.950Z,39.27
2023-07-09T02:50:14.035Z,39.36
2023-07-09T02:51:13.954Z,39.32
2023-07-09T02:52:13.969Z,39.31
2023-07-09T02:53:13.972Z,39.31
2023-07-09T02:54:14.004Z,39.25
2023-07-09T02:55:14.012Z,39.31
2023-07-09T02:56:14.039Z,39.28
2023-07-09T02:57:14.011Z,39.27
2023-07-09T02:58:14.072Z,39.28
2023-07-09T02:59:14.055Z,39.31
2023-07-09T03:00:14.064Z,39.25
2023-07-09T03:01:14.084Z,39.29
2023-07-09T03:02:14.224Z,39.23
2023-07-09T03:03:14.232Z,39.28
2023-07-09T03:04:14.161Z,39.24
2023-07-09T03:05:14.142Z,39.20
2023-07-09T03:06:14.165Z,39.21
2023-07-09T03:07:14.203Z,39.18
2023-07-09T03:08:14.171Z,39.22
2023-07-09T03:09:14.184Z,39.24
2023-07-09T03:10:14.205Z,39.18
2023-07-09T03:11:14.224Z,39.18
2023-07-09T03:12:14.241Z,39.15
2023-07-09T03:13:14.249Z,39.11
2023-07-09T03:14:14.312Z,39.22
2023-07-09T03:15:14.292Z,39.13
2023-07-09T03:16:14.273Z,39.19
2023-07-09T03:17:14.286Z,39.18
2023-07-09T03:18:14.300Z,39.16
2023-07-09T03:19:14.325Z,39.14
2023-07-09T03:20:14.332Z,39.10
2023-07-09T03:21:14.308Z,39.12
2023-07-09T03:22:14.384Z,39.16
2023-07-09T03:23:14.354Z,39.14
2023-07-09T03:24:14.359Z,39.15
2023-07-09T03:25:14.370Z,39.14
2023-07-09T03:26:14.391Z,39.12
2023-07-09T03:27:14.430Z,39.19
2023-07-09T03:28:14.392Z,39.14
2023-07-09T03:29:14.455Z,39.15
2023-07-09T03:30:14.484Z,39.18
2023-07-09T03:31:14.457Z,39.17
2023-07-09T03:32:14.541Z,39.22
2023-07-09T03:33:14.487Z,39.18
2023-07-09T03:34:14.510Z,39.20
2023-07-09T03:35:14.527Z,39.20
2023-07-09T03:36:14.535Z,39.16
2023-07-09T03:37:14.612Z,39.18
2023-07-09T03:38:14.568Z,39.17
2023-07-09T03:39:14.598Z,39.20
2023-07-09T03:40:14.589Z,39.19
2023-07-09T03:41:14.592Z,39.16
2023-07-09T03:42:14.606Z,39.20
2023-07-09T03:43:14.638Z,39.17
2023-07-09T03:44:14.647Z,39.14
2023-07-09T03:45:14.649Z,39.08
2023-07-09T03:46:14.680Z,39.16
2023-07-09T03:47:14.715Z,39.14
2023-07-09T03:48:14.737Z,39.05
2023-07-09T03:49:14.686Z,39.05
2023-07-09T03:50:14.710Z,39.03
2023-07-09T03:51:14.726Z,39.02
2023-07-09T03:52:14.745Z,39.04
2023-07-09T03:53:14.756Z,39.08
2023-07-09T03:54:14.781Z,39.09
2023-07-09T03:55:14.795Z,38.97
2023-07-09T03:56:14.777Z,38.98
2023-07-09T03:57:14.837Z,38.97
2023-07-09T03:58:14.820Z,39.01
2023-07-09T03:59:14.818Z,38.97
2023-07-09T04:00:14.835Z,38.98
2023-07-09T04:01:14.864Z,38.97
2023-07-09T04:02:14.875Z,39.00
2023-07-09T04:03:14.890Z,38.93
2023-07-09T04:04:14.951Z,38.96
2023-07-09T04:05:14.931Z,38.94
2023-07-09T04:06:14.938Z,38.87
2023-07-09T04:07:14.963Z,38.89
2023-07-09T04:08:14.947Z,38.87
2023-07-09T04:09:14.987Z,38.86
2023-07-09T04:10:14.977Z,38.89
2023-07-09T04:11:14.995Z,38.91
2023-07-09T04:12:15.042Z,38.83
2023-07-09T04:13:15.048Z,38.86
2023-07-09T04:14:15.104Z,38.87
2023-07-09T04:15:15.071Z,38.85
2023-07-09T04:16:15.125Z,38.89
2023-07-09T04:17:15.118Z,38.91
2023-07-09T04:18:15.142Z,38.87
2023-07-09T04:19:15.159Z,38.91
2023-07-09T04:20:15.195Z,38.94
2023-07-09T04:21:15.188Z,38.92
2023-07-09T04:22:15.190Z,38.87
2023-07-09T04:23:15.238Z,38.94
2023-07-09T04:24:15.229Z,38.93
2023-07-09T04:25:15.231Z,38.91
2023-07-09T04:26:15.224Z,38.97
2023-07-09T04:27:15.267Z,38.98
2023-07-09T04:28:15.268Z,38.98
2023-07-09T04:29:15.279Z,39.02
2023-07-09T04:30:15.302Z,39.02
2023-07-09T04:31:15.331Z,39.05
2023-07-09T04:32:15.599Z,39.08
2023-07-09T04:33:15.370Z,39.08
2023-07-09T04:34:15.375Z,39.09
2023-07-09T04:35:15.397Z,39.13
2023-07-09T04:36:15.376Z,39.07
2023-07-09T04:37:15.446Z,39.10
2023-07-09T04:38:15.443Z,39.13
2023-07-09T04:39:15.465Z,39.14
2023-07-09T04:40:15.446Z,39.13
2023-07-09T04:41:15.469Z,39.13
2023-07-09T04:42:15.461Z,39.16
2023-07-09T04:43:15.523Z,39.13
2023-07-09T04:44:15.503Z,39.12
2023-07-09T04:45:15.531Z,39.16
2023-07-09T04:46:15.599Z,39.10
2023-07-09T04:47:15.540Z,39.14
2023-07-09T04:48:15.591Z,39.13
2023-07-09T04:49:15.593Z,39.14
2023-07-09T04:50:15.599Z,39.13
2023-07-09T04:51:15.639Z,39.05
2023-07-09T04:52:15.651Z,39.03
2023-07-09T04:53:15.668Z,38.91
2023-07-09T04:54:15.661Z,38.81
2023-07-09T04:55:15.680Z,38.78
2023-07-09T04:56:15.722Z,38.70
2023-07-09T04:57:15.671Z,38.69
2023-07-09T04:58:15.706Z,38.66
2023-07-09T04:59:15.697Z,38.63
2023-07-09T05:00:15.722Z,38.64
2023-07-09T05:01:15.764Z,38.56
2023-07-09T05:02:15.752Z,38.52
2023-07-09T05:03:15.788Z,38.53
2023-07-09T05:04:15.894Z,38.50
2023-07-09T05:05:15.849Z,38.45
2023-07-09T05:06:15.799Z,38.45
2023-07-09T05:07:15.820Z,38.39
2023-07-09T05:08:15.843Z,38.35
2023-07-09T05:09:15.840Z,38.40
2023-07-09T05:10:15.844Z,38.38
2023-07-09T05:11:15.911Z,38.37
2023-07-09T05:12:15.874Z,38.35
2023-07-09T05:13:15.890Z,38.37
2023-07-09T05:14:16.011Z,38.36
2023-07-09T05:15:15.943Z,38.32
2023-07-09T05:16:16.025Z,38.28
2023-07-09T05:17:15.948Z,38.27
2023-07-09T05:18:15.958Z,38.26
2023-07-09T05:19:15.957Z,38.22
2023-07-09T05:20:15.962Z,38.23
2023-07-09T05:21:15.938Z,38.22
2023-07-09T05:22:15.935Z,38.22
2023-07-09T05:23:15.945Z,38.19
2023-07-09T05:24:15.941Z,38.18
2023-07-09T05:25:15.969Z,38.17
2023-07-09T05:26:15.979Z,38.17
2023-07-09T05:27:15.961Z,38.15
2023-07-09T05:28:15.965Z,38.17
2023-07-09T05:29:15.954Z,38.12
2023-07-09T05:30:15.975Z,38.12
2023-07-09T05:31:16.015Z,38.08
2023-07-09T05:32:15.990Z,38.06
2023-07-09T05:33:16.016Z,38.07
2023-07-09T05:34:16.027Z,38.08
2023-07-09T05:35:16.093Z,38.07
2023-07-09T05:36:16.116Z,38.08
2023-07-09T05:37:16.150Z,38.03
2023-07-09T05:38:16.183Z,38.02
2023-07-09T05:39:16.229Z,37.99
2023-07-09T05:40:16.307Z,38.03
2023-07-09T05:41:16.337Z,37.98
2023-07-09T05:42:16.468Z,38.01
2023-07-09T05:43:16.462Z,37.97
2023-07-09T05:44:16.510Z,37.92
2023-07-09T05:45:16.653Z,37.94
2023-07-09T05:46:16.666Z,37.97
2023-07-09T05:47:16.787Z,37.89
2023-07-09T05:48:16.756Z,37.87
2023-07-09T05:49:16.844Z,37.90
2023-07-09T05:50:16.894Z,37.87
2023-07-09T05:51:16.959Z,37.88
2023-07-09T05:52:17.006Z,37.84
2023-07-09T05:53:17.068Z,37.83
2023-07-09T05:54:17.131Z,37.79
2023-07-09T05:55:17.175Z,37.85
2023-07-09T05:56:17.215Z,37.77
2023-07-09T05:57:17.310Z,37.79
2023-07-09T05:58:17.357Z,37.78
2023-07-09T05:59:17.418Z,37.73
2023-07-09T06:00:17.441Z,37.69
2023-07-09T06:01:17.541Z,37.68
2023-07-09T06:02:17.645Z,37.67
2023-07-09T06:03:17.783Z,37.61
2023-07-09T06:04:17.722Z,37.63
2023-07-09T06:05:17.733Z,37.52
2023-07-09T06:06:17.756Z,37.56
2023-07-09T06:07:17.824Z,37.47
2023-07-09T06:08:17.856Z,37.47
2023-07-09T06:09:17.875Z,37.46
2023-07-09T06:10:17.948Z,37.43
2023-07-09T06:11:18.004Z,37.39
2023-07-09T06:12:18.029Z,37.36
2023-07-09T06:13:18.034Z,37.32
2023-07-09T06:14:18.225Z,37.33
2023-07-09T06:15:18.126Z,37.28
2023-07-09T06:16:18.179Z,37.36
2023-07-09T06:17:18.206Z,37.35
2023-07-09T06:18:18.271Z,37.29
2023-07-09T06:19:18.261Z,37.34
2023-07-09T06:20:18.309Z,37.27
2023-07-09T06:21:18.357Z,37.35
2023-07-09T06:22:18.374Z,37.29
2023-07-09T06:23:18.380Z,37.29
2023-07-09T06:24:18.408Z,37.26
2023-07-09T06:25:18.415Z,37.26
2023-07-09T06:26:18.506Z,37.25
2023-07-09T06:27:18.468Z,37.24
2023-07-09T06:28:18.473Z,37.27
2023-07-09T06:29:18.492Z,37.27
2023-07-09T06:30:18.508Z,37.27
2023-07-09T06:31:18.570Z,37.22
2023-07-09T06:32:18.648Z,37.25
2023-07-09T06:33:18.596Z,37.21
2023-07-09T06:34:18.592Z,37.25
2023-07-09T06:35:18.627Z,37.25
2023-07-09T06:36:18.619Z,37.19
2023-07-09T06:37:18.606Z,37.23
2023-07-09T06:38:18.618Z,37.20
2023-07-09T06:39:18.630Z,37.21
2023-07-09T06:40:18.627Z,37.14
2023-07-09T06:41:18.633Z,37.20
2023-07-09T06:42:18.619Z,37.23
2023-07-09T06:43:18.633Z,37.22
2023-07-09T06:44:18.602Z,37.21
2023-07-09T06:45:18.611Z,37.17
2023-07-09T06:46:18.635Z,37.17
2023-07-09T06:47:18.614Z,37.14
2023-07-09T06:48:18.630Z,37.13
2023-07-09T06:49:18.615Z,37.17
2023-07-09T06:50:18.681Z,37.10
2023-07-09T06:51:18.719Z,37.08
2023-07-09T06:52:18.716Z,37.04
2023-07-09T06:53:18.772Z,36.99
2023-07-09T06:54:18.765Z,37.03
2023-07-09T06:55:18.788Z,37.02
2023-07-09T06:56:18.818Z,37.03
2023-07-09T06:57:18.869Z,36.96
2023-07-09T06:58:18.933Z,36.98
2023-07-09T06:59:18.989Z,36.93
2023-07-09T07:00:19.034Z,36.93
2023-07-09T07:01:21.415Z,36.91
2023-07-09T07:02:19.122Z,36.85
2023-07-09T07:03:19.147Z,36.90
2023-07-09T07:04:19.064Z,36.83
2023-07-09T07:05:19.068Z,36.83
2023-07-09T07:06:19.066Z,36.83
2023-07-09T07:07:19.055Z,36.78
2023-07-09T07:08:19.088Z,36.75
2023-07-09T07:09:19.048Z,36.73
2023-07-09T07:10:19.024Z,36.73
2023-07-09T07:11:19.039Z,36.67
2023-07-09T07:12:19.028Z,36.66
2023-07-09T07:13:19.016Z,36.66
2023-07-09T07:14:19.016Z,36.65
2023-07-09T07:15:19.002Z,36.61
2023-07-09T07:16:19.005Z,36.59
2023-07-09T07:17:18.982Z,36.56
2023-07-09T07:18:19.006Z,36.55
2023-07-09T07:19:18.991Z,36.51
2023-07-09T07:20:18.941Z,36.45
2023-07-09T07:21:18.949Z,36.48
2023-07-09T07:22:18.932Z,36.46
2023-07-09T07:23:18.935Z,36.44
2023-07-09T07:24:19.876Z,36.42
2023-07-09T07:25:18.942Z,36.38
2023-07-09T07:26:18.906Z,36.41
2023-07-09T07:27:18.949Z,36.34
2023-07-09T07:28:18.892Z,36.33
2023-07-09T07:29:18.888Z,36.31
2023-07-09T07:30:18.942Z,36.31
2023-07-09T07:31:18.917Z,36.29
2023-07-09T07:32:18.947Z,36.26
2023-07-09T07:33:18.884Z,36.22
2023-07-09T07:34:18.852Z,36.17
2023-07-09T07:35:18.837Z,36.18
2023-07-09T07:37:18.864Z,36.19
2023-07-09T07:38:18.842Z,36.15
2023-07-09T07:39:18.837Z,36.16
2023-07-09T07:40:18.871Z,36.12
2023-07-09T07:41:18.825Z,36.11
2023-07-09T07:42:18.811Z,36.09
2023-07-09T07:43:18.882Z,36.07
2023-07-09T07:44:18.839Z,36.03
2023-07-09T07:45:18.773Z,36.00
2023-07-09T07:46:18.900Z,36.03
2023-07-09T07:47:18.798Z,36.02
2023-07-09T07:48:18.769Z,35.96
2023-07-09T07:49:18.785Z,35.95
2023-07-09T07:50:18.883Z,35.87
2023-07-09T07:51:18.727Z,35.84
2023-07-09T07:52:18.729Z,35.83
2023-07-09T07:53:18.755Z,35.83
2023-07-09T07:54:18.705Z,35.79
2023-07-09T07:55:20.624Z,35.82
2023-07-09T07:56:18.700Z,35.79
2023-07-09T07:57:18.676Z,35.77
2023-07-09T07:58:18.693Z,35.79
2023-07-09T07:59:18.677Z,35.70
2023-07-09T08:00:18.677Z,35.73
2023-07-09T08:01:18.729Z,35.69
2023-07-09T08:02:18.716Z,35.70
2023-07-09T08:03:18.625Z,35.63
2023-07-09T08:04:18.679Z,35.65
2023-07-09T08:05:18.635Z,35.57
2023-07-09T08:06:18.628Z,35.58
2023-07-09T08:07:18.620Z,35.54
2023-07-09T08:08:18.625Z,35.55
2023-07-09T08:09:18.635Z,35.51
2023-07-09T08:10:18.579Z,35.50
2023-07-09T08:11:18.687Z,35.49
2023-07-09T08:12:18.604Z,35.46
2023-07-09T08:13:18.581Z,35.41
2023-07-09T08:14:18.645Z,35.44
2023-07-09T08:15:18.547Z,35.38
2023-07-09T08:16:19.415Z,35.38
2023-07-09T08:17:18.528Z,35.39
2023-07-09T08:18:18.630Z,35.37
2023-07-09T08:19:18.519Z,35.33
2023-07-09T08:20:18.523Z,35.31
2023-07-09T08:21:18.511Z,35.28
2023-07-09T08:22:18.516Z,35.28
2023-07-09T08:23:18.495Z,35.26
2023-07-09T08:24:18.462Z,35.26
2023-07-09T08:25:18.457Z,35.21
2023-07-09T08:26:18.458Z,35.24
2023-07-09T08:27:18.491Z,35.14
2023-07-09T08:28:18.466Z,35.21
2023-07-09T08:29:18.433Z,35.20
2023-07-09T08:30:18.442Z,35.16
2023-07-09T08:31:18.481Z,35.16
2023-07-09T08:32:18.438Z,35.10
2023-07-09T08:33:18.451Z,35.10
2023-07-09T08:34:18.428Z,35.10
2023-07-09T08:36:18.409Z,35.08
2023-07-09T08:37:18.398Z,35.03
2023-07-09T08:38:18.418Z,35.03
2023-07-09T08:39:18.422Z,35.03
2023-07-09T08:40:18.398Z,35.04
2023-07-09T08:41:18.370Z,35.01
2023-07-09T08:42:18.353Z,35.00
2023-07-09T08:43:18.364Z,35.03
2023-07-09T08:44:18.365Z,34.96
2023-07-09T08:45:18.340Z,34.96
2023-07-09T08:46:18.394Z,34.91
2023-07-09T08:47:18.356Z,34.92
2023-07-09T08:48:18.348Z,34.86
2023-07-09T08:49:18.304Z,34.89
2023-07-09T08:50:18.305Z,34.88
2023-07-09T08:51:18.312Z,34.84
2023-07-09T08:52:18.290Z,34.90
2023-07-09T08:53:18.281Z,34.84
2023-07-09T08:54:18.267Z,34.79
2023-07-09T08:55:18.259Z,34.79
2023-07-09T08:56:18.260Z,34.79
2023-07-09T08:57:18.255Z,34.70
2023-07-09T08:58:18.276Z,34.70
2023-07-09T08:59:18.250Z,34.72
2023-07-09T09:00:18.267Z,34.66
2023-07-09T09:01:18.282Z,34.72
2023-07-09T09:02:18.274Z,34.65
2023-07-09T09:03:18.243Z,34.59
2023-07-09T09:04:18.230Z,34.57
2023-07-09T09:05:18.184Z,34.54
2023-07-09T09:06:18.191Z,34.56
2023-07-09T09:07:18.188Z,34.50
2023-07-09T09:08:18.165Z,34.43
2023-07-09T09:09:18.155Z,34.42
2023-07-09T09:10:18.198Z,34.43
2023-07-09T09:11:18.150Z,34.35
2023-07-09T09:12:18.161Z,34.36
2023-07-09T09:13:18.137Z,34.36
2023-07-09T09:14:18.183Z,34.30
2023-07-09T09:15:18.127Z,34.27
2023-07-09T09:16:18.179Z,34.23
2023-07-09T09:17:18.106Z,34.21
2023-07-09T09:18:18.111Z,34.18
2023-07-09T09:19:18.105Z,34.17
2023-07-09T09:20:18.069Z,34.18
2023-07-09T09:21:18.083Z,34.15
2023-07-09T09:22:18.080Z,34.14
2023-07-09T09:23:18.068Z,34.11
2023-07-09T09:24:18.051Z,34.12
2023-07-09T09:25:18.055Z,34.09
2023-07-09T09:26:18.037Z,34.07
2023-07-09T09:27:18.046Z,34.13
2023-07-09T09:28:18.021Z,34.02
2023-07-09T09:29:18.017Z,34.03
2023-07-09T09:30:18.085Z,34.05
2023-07-09T09:31:18.170Z,33.99
2023-07-09T09:32:18.191Z,34.04
2023-07-09T09:33:18.327Z,33.95
2023-07-09T09:34:18.288Z,33.97
2023-07-09T09:35:18.357Z,33.92
2023-07-09T09:36:18.419Z,33.95
2023-07-09T09:37:18.452Z,33.91
2023-07-09T09:38:18.494Z,33.89
2023-07-09T09:39:18.568Z,33.88
2023-07-09T09:40:18.635Z,33.85
2023-07-09T09:41:18.698Z,33.86
2023-07-09T09:42:18.800Z,33.84
2023-07-09T09:43:18.807Z,33.86
2023-07-09T09:44:18.835Z,33.83
2023-07-09T09:45:18.948Z,33.78
2023-07-09T09:46:18.970Z,33.82
2023-07-09T09:47:19.131Z,33.80
2023-07-09T09:48:19.144Z,33.78
2023-07-09T09:49:19.135Z,33.74
2023-07-09T09:50:19.263Z,33.74
2023-07-09T09:51:19.258Z,33.81
2023-07-09T09:52:19.307Z,33.71
2023-07-09T09:53:19.406Z,33.68
2023-07-09T09:54:19.421Z,33.68
2023-07-09T09:55:19.496Z,33.64
2023-07-09T09:56:19.558Z,33.67
2023-07-09T09:57:19.576Z,33.59
2023-07-09T09:58:19.693Z,33.53
2023-07-09T09:59:19.697Z,33.56
2023-07-09T10:00:19.887Z,33.53
2023-07-09T10:01:19.858Z,33.50
2023-07-09T10:02:19.940Z,33.52
2023-07-09T10:03:20.050Z,33.47
2023-07-09T10:04:20.033Z,33.47
2023-07-09T10:05:20.038Z,33.47
2023-07-09T10:06:20.145Z,33.41
2023-07-09T10:07:20.183Z,33.41
2023-07-09T10:08:20.243Z,33.38
2023-07-09T10:09:20.272Z,33.43
2023-07-09T10:10:20.383Z,33.33
2023-07-09T10:11:20.412Z,33.32
2023-07-09T10:12:20.442Z,33.34
2023-07-09T10:13:20.519Z,33.28
2023-07-09T10:14:20.560Z,33.31
2023-07-09T10:15:20.625Z,33.23
2023-07-09T10:16:20.661Z,33.25
2023-07-09T10:17:20.736Z,33.33
2023-07-09T10:18:20.917Z,33.29
2023-07-09T10:19:20.825Z,33.25
2023-07-09T10:20:20.937Z,33.17
2023-07-09T10:21:20.934Z,33.25
2023-07-09T10:22:20.990Z,33.22
2023-07-09T10:23:21.079Z,33.22
2023-07-09T10:24:21.108Z,33.23
2023-07-09T10:25:21.139Z,33.22
2023-07-09T10:26:21.220Z,33.17
2023-07-09T10:27:21.272Z,33.25
2023-07-09T10:28:21.329Z,33.23
2023-07-09T10:29:21.382Z,33.22
2023-07-09T10:30:22.685Z,33.17
2023-07-09T10:31:21.521Z,33.17
2023-07-09T10:32:21.511Z,33.22
2023-07-09T10:33:21.595Z,33.22
2023-07-09T10:34:21.635Z,33.19
2023-07-09T10:35:21.673Z,33.15
2023-07-09T10:36:21.717Z,33.14
2023-07-09T10:37:21.846Z,33.20
2023-07-09T10:38:21.853Z,33.16
2023-07-09T10:39:21.914Z,33.19
2023-07-09T10:40:21.925Z,33.16
2023-07-09T10:41:27.199Z,33.09
2023-07-09T10:42:22.983Z,33.19
2023-07-09T10:43:21.995Z,33.17
2023-07-09T10:44:21.994Z,33.17
2023-07-09T10:45:21.966Z,33.13
2023-07-09T10:46:21.998Z,33.19
2023-07-09T10:47:21.982Z,33.07
2023-07-09T10:48:21.953Z,33.08
2023-07-09T10:49:21.962Z,33.14
2023-07-09T10:50:21.927Z,33.17
2023-07-09T10:51:21.914Z,33.11
2023-07-09T10:52:21.960Z,33.16
2023-07-09T10:53:22.014Z,33.17
2023-07-09T10:54:22.050Z,33.13
2023-07-09T10:55:22.096Z,33.14
2023-07-09T10:56:22.193Z,33.17
2023-07-09T10:57:22.209Z,33.11
2023-07-09T10:58:24.171Z,33.10
2023-07-09T10:59:22.294Z,33.10
2023-07-09T11:00:22.364Z,33.11
2023-07-09T11:01:22.455Z,33.07
2023-07-09T11:02:22.500Z,33.11
2023-07-09T11:03:22.571Z,33.12
2023-07-09T11:04:22.542Z,33.08
2023-07-09T11:05:22.595Z,33.08
2023-07-09T11:06:22.667Z,33.10
2023-07-09T11:07:22.700Z,33.05
2023-07-09T11:08:22.774Z,33.06
2023-07-09T11:09:22.811Z,33.04
2023-07-09T11:10:22.854Z,33.11
2023-07-09T11:11:22.916Z,33.05
2023-07-09T11:12:22.951Z,33.05
2023-07-09T11:13:23.075Z,33.05
2023-07-09T11:14:23.135Z,33.11
2023-07-09T11:15:23.137Z,33.04
2023-07-09T11:16:23.229Z,33.11
2023-07-09T11:17:23.228Z,33.03
2023-07-09T11:18:23.261Z,33.11
2023-07-09T11:19:23.346Z,33.05
2023-07-09T11:20:23.382Z,33.05
2023-07-09T11:21:23.509Z,33.08
2023-07-09T11:22:23.482Z,33.11
2023-07-09T11:23:23.577Z,33.04
2023-07-09T11:24:23.594Z,33.08
2023-07-09T11:25:23.655Z,33.05
2023-07-09T11:26:23.718Z,33.06
2023-07-09T11:27:23.768Z,33.02
2023-07-09T11:28:23.856Z,33.03
2023-07-09T11:29:23.898Z,33.07
2023-07-09T11:30:23.954Z,33.07
2023-07-09T11:31:24.040Z,33.02
2023-07-09T11:32:24.140Z,33.03
2023-07-09T11:33:25.551Z,33.03
2023-07-09T11:34:24.171Z,32.97
2023-07-09T11:35:24.237Z,32.94
2023-07-09T11:36:24.334Z,32.92
2023-07-09T11:37:24.364Z,33.00
2023-07-09T11:38:24.392Z,32.95
2023-07-09T11:39:24.469Z,32.93
2023-07-09T11:40:24.535Z,32.89
2023-07-09T11:41:24.579Z,32.80
2023-07-09T11:42:24.627Z,32.80
2023-07-09T11:43:24.678Z,32.76
2023-07-09T11:44:24.833Z,32.76
2023-07-09T11:45:24.800Z,32.77
2023-07-09T11:46:24.907Z,32.77
2023-07-09T11:47:24.958Z,32.76
2023-07-09T11:48:24.972Z,32.75
2023-07-09T11:49:25.045Z,32.50
2023-07-09T11:50:25.108Z,32.61
2023-07-09T11:51:25.162Z,32.64
2023-07-09T11:52:25.204Z,32.65
2023-07-09T11:53:25.268Z,32.59
2023-07-09T11:54:25.316Z,32.57
2023-07-09T11:55:25.385Z,32.51
2023-07-09T11:56:25.440Z,32.48
2023-07-09T11:57:25.514Z,32.47
2023-07-09T11:58:25.548Z,32.38
2023-07-09T11:59:25.624Z,32.39
2023-07-09T12:00:25.691Z,32.30
2023-07-09T12:01:25.742Z,32.33
2023-07-09T12:02:25.804Z,32.22
2023-07-09T12:03:25.859Z,32.26
2023-07-09T12:04:25.960Z,32.19
2023-07-09T12:05:25.918Z,32.23
2023-07-09T12:06:25.932Z,32.19
2023-07-09T12:07:25.976Z,32.14
2023-07-09T12:08:26.013Z,32.08
2023-07-09T12:09:26.066Z,32.18
2023-07-09T12:10:26.100Z,32.08
2023-07-09T12:11:26.134Z,32.08
2023-07-09T12:12:26.177Z,32.09
2023-07-09T12:13:26.274Z,32.03
2023-07-09T12:14:26.335Z,32.09
2023-07-09T12:15:26.294Z,31.99
2023-07-09T12:16:26.345Z,32.02
2023-07-09T12:17:26.443Z,31.98
2023-07-09T12:18:26.377Z,32.00
2023-07-09T12:19:26.427Z,31.96
2023-07-09T12:20:26.427Z,31.89
2023-07-09T12:21:26.445Z,31.87
2023-07-09T12:22:26.500Z,31.81
2023-07-09T12:23:26.524Z,31.76
2023-07-09T12:24:26.532Z,31.73
2023-07-09T12:25:26.535Z,31.70
2023-07-09T12:26:26.592Z,31.61
2023-07-09T12:27:26.641Z,31.63
2023-07-09T12:28:26.614Z,31.61
2023-07-09T12:29:26.676Z,31.52
2023-07-09T12:30:26.675Z,31.52
2023-07-09T12:31:26.751Z,31.61
2023-07-09T12:32:26.758Z,31.48
2023-07-09T12:33:26.789Z,31.55
2023-07-09T12:34:26.740Z,31.51
2023-07-09T12:35:26.730Z,31.42
2023-07-09T12:36:26.763Z,31.42
2023-07-09T12:37:26.785Z,31.41
2023-07-09T12:38:26.801Z,31.31
2023-07-09T12:39:26.821Z,31.32
2023-07-09T12:40:26.821Z,31.31
2023-07-09T12:41:26.811Z,31.31
2023-07-09T12:42:26.831Z,31.25
2023-07-09T12:43:26.832Z,31.20
2023-07-09T12:44:26.840Z,31.22
2023-07-09T12:45:26.827Z,31.22
2023-07-09T12:46:26.919Z,31.18
2023-07-09T12:47:26.941Z,31.10
2023-07-09T12:48:26.924Z,31.14
2023-07-09T12:49:26.881Z,31.06
2023-07-09T12:50:26.880Z,31.08
2023-07-09T12:51:26.969Z,31.13
2023-07-09T12:52:26.898Z,31.02
2023-07-09T12:53:26.907Z,31.01
2023-07-09T12:54:26.892Z,31.02